createdAt,value
2023-03-17T00:01:44.852Z,2.54
2023-03-17T00:04:12.621Z,2.49
2023-03-17T00:06:41.440Z,2.44
2023-03-17T00:09:15.701Z,2.40
2023-03-17T00:11:43.092Z,2.35
2023-03-17T00:14:09.947Z,2.42
2023-03-17T00:16:42.400Z,2.35
2023-03-17T00:19:33.484Z,2.28
2023-03-17T00:22:00.908Z,2.29
2023-03-17T00:24:28.414Z,2.34
2023-03-17T00:26:55.149Z,2.26
2023-03-17T00:29:21.818Z,2.14
2023-03-17T00:31:50.749Z,2.19
2023-03-17T00:34:18.669Z,2.12
2023-03-17T00:36:50.581Z,2.15
2023-03-17T00:39:18.696Z,2.20
2023-03-17T00:44:14.402Z,2.03
2023-03-17T00:46:41.625Z,2.12
2023-03-17T00:49:18.869Z,2.08
2023-03-17T00:51:46.327Z,2.14
2023-03-17T00:54:14.443Z,1.95
2023-03-17T00:56:41.733Z,2.01
2023-03-17T00:59:29.944Z,1.96
2023-03-17T01:01:57.064Z,1.92
2023-03-17T01:04:23.936Z,2.07
2023-03-17T01:06:51.260Z,2.05
2023-03-17T01:09:18.583Z,2.10
2023-03-17T01:11:45.332Z,2.22
2023-03-17T01:14:12.691Z,2.26
2023-03-17T01:16:39.690Z,2.33
2023-03-17T01:19:06.816Z,2.28
2023-03-17T01:21:33.588Z,2.33
2023-03-17T01:24:00.439Z,2.51
2023-03-17T01:26:27.198Z,2.40
2023-03-17T01:28:53.874Z,2.43
2023-03-17T01:31:20.745Z,2.40
2023-03-17T01:33:47.488Z,2.47
2023-03-17T01:36:14.191Z,2.61
2023-03-17T01:38:41.509Z,2.57
2023-03-17T01:41:08.169Z,2.65
2023-03-17T01:43:34.804Z,2.66
2023-03-17T01:46:22.742Z,2.41
2023-03-17T01:49:15.729Z,2.49
2023-03-17T01:51:51.448Z,2.56
2023-03-17T01:54:43.992Z,2.49
2023-03-17T01:57:16.402Z,2.50
2023-03-17T01:59:55.780Z,2.43
2023-03-17T02:02:34.943Z,2.52
2023-03-17T02:05:03.555Z,2.57
2023-03-17T02:07:30.234Z,2.55
2023-03-17T02:09:58.070Z,2.53
2023-03-17T02:12:25.739Z,2.59
2023-03-17T02:14:54.067Z,2.54
2023-03-17T02:17:22.976Z,2.53
2023-03-17T02:19:49.864Z,2.63
2023-03-17T02:22:18.319Z,2.55
2023-03-17T02:24:58.537Z,2.52
2023-03-17T02:27:36.987Z,2.51
2023-03-17T02:30:06.406Z,2.55
2023-03-17T02:32:36.175Z,2.52
2023-03-17T02:35:03.735Z,2.54
2023-03-17T02:37:30.665Z,2.62
2023-03-17T02:39:57.299Z,2.51
2023-03-17T02:42:23.949Z,2.57
2023-03-17T02:44:50.631Z,2.63
2023-03-17T02:47:17.421Z,2.66
2023-03-17T02:49:44.219Z,2.62
2023-03-17T02:52:11.008Z,2.63
2023-03-17T02:54:37.998Z,2.63
2023-03-17T02:57:04.818Z,2.63
2023-03-17T02:59:31.997Z,2.68
2023-03-17T03:01:58.683Z,2.66
2023-03-17T03:04:26.083Z,2.64
2023-03-17T03:06:53.583Z,2.70
2023-03-17T03:09:20.413Z,2.65
2023-03-17T03:11:47.595Z,2.70
2023-03-17T03:14:14.752Z,2.69
2023-03-17T03:16:41.445Z,2.72
2023-03-17T03:19:08.049Z,2.76
2023-03-17T03:21:34.674Z,2.81
2023-03-17T03:24:01.298Z,2.78
2023-03-17T03:26:28.430Z,2.81
2023-03-17T03:28:57.335Z,2.79
2023-03-17T03:31:24.467Z,2.73
2023-03-17T03:33:51.600Z,2.68
2023-03-17T03:36:18.549Z,2.71
2023-03-17T03:38:45.280Z,2.73
2023-03-17T03:41:11.941Z,2.62
2023-03-17T03:43:38.550Z,2.71
2023-03-17T03:46:05.515Z,2.80
2023-03-17T03:48:32.411Z,2.75
2023-03-17T03:51:00.918Z,2.81
2023-03-17T03:53:28.230Z,2.81
2023-03-17T03:55:55.360Z,2.79
2023-03-17T03:58:22.243Z,2.73
2023-03-17T04:00:49.094Z,2.61
2023-03-17T04:03:16.024Z,2.70
2023-03-17T04:05:42.858Z,2.68
2023-03-17T04:08:09.514Z,2.77
2023-03-17T04:10:36.294Z,2.68
2023-03-17T04:13:03.025Z,2.66
2023-03-17T04:15:29.650Z,2.72
2023-03-17T04:17:56.264Z,2.74
2023-03-17T04:20:23.014Z,2.67
2023-03-17T04:22:49.830Z,2.67
2023-03-17T04:25:16.472Z,2.62
2023-03-17T04:27:43.100Z,2.57
2023-03-17T04:30:13.804Z,2.71
2023-03-17T04:32:40.802Z,2.76
2023-03-17T04:35:09.212Z,2.67
2023-03-17T04:37:36.186Z,2.70
2023-03-17T04:40:02.797Z,2.57
2023-03-17T04:42:32.493Z,2.55
2023-03-17T04:44:59.408Z,2.64
2023-03-17T04:47:26.273Z,2.64
2023-03-17T04:49:52.906Z,2.63
2023-03-17T04:52:20.223Z,2.53
2023-03-17T04:54:46.930Z,2.54
2023-03-17T04:57:13.937Z,2.56
2023-03-17T04:59:40.566Z,2.57
2023-03-17T05:02:07.839Z,2.57
2023-03-17T05:04:34.452Z,2.44
2023-03-17T05:07:01.273Z,2.53
2023-03-17T05:09:28.845Z,2.55
2023-03-17T05:11:55.777Z,2.52
2023-03-17T05:14:22.558Z,2.57
2023-03-17T05:16:55.475Z,2.57
2023-03-17T05:19:23.316Z,2.42
2023-03-17T05:21:49.927Z,2.54
2023-03-17T05:24:16.816Z,2.54
2023-03-17T05:26:43.451Z,2.54
2023-03-17T05:29:10.656Z,2.45
2023-03-17T05:31:37.410Z,2.57
2023-03-17T05:34:04.259Z,2.60
2023-03-17T05:36:31.377Z,2.60
2023-03-17T05:38:58.480Z,2.48
2023-03-17T05:41:25.699Z,2.57
2023-03-17T05:43:52.329Z,2.65
2023-03-17T05:46:20.442Z,2.67
2023-03-17T05:48:47.299Z,2.68
2023-03-17T05:51:13.958Z,2.66
2023-03-17T05:53:41.129Z,2.66
2023-03-17T05:56:08.004Z,2.70
2023-03-17T05:58:35.051Z,2.74
2023-03-17T06:01:01.899Z,2.72
2023-03-17T06:03:28.553Z,2.81
2023-03-17T06:05:55.172Z,2.79
2023-03-17T06:08:21.824Z,2.84
2023-03-17T06:10:48.597Z,2.84
2023-03-17T06:13:15.549Z,2.82
2023-03-17T06:15:43.130Z,2.88
2023-03-17T06:18:12.231Z,2.96
2023-03-17T06:20:38.851Z,2.89
2023-03-17T06:23:06.951Z,2.93
2023-03-17T06:25:34.720Z,3.03
2023-03-17T06:28:03.879Z,3.03
2023-03-17T06:30:33.020Z,2.98
2023-03-17T06:33:01.210Z,3.05
2023-03-17T06:35:28.674Z,3.13
2023-03-17T06:37:55.535Z,3.10
2023-03-17T06:40:22.220Z,3.14
2023-03-17T06:42:48.853Z,3.15
2023-03-17T06:45:15.991Z,3.16
2023-03-17T06:47:42.757Z,3.22
2023-03-17T06:50:10.192Z,3.28
2023-03-17T06:52:37.617Z,3.31
2023-03-17T06:55:05.342Z,3.38
2023-03-17T06:57:32.473Z,3.29
2023-03-17T06:59:59.157Z,3.43
2023-03-17T07:02:26.406Z,3.54
2023-03-17T07:04:53.492Z,3.52
2023-03-17T07:07:21.167Z,3.55
2023-03-17T07:09:48.075Z,3.75
2023-03-17T07:12:14.850Z,3.83
2023-03-17T07:14:41.787Z,3.87
2023-03-17T07:17:12.288Z,3.97
2023-03-17T07:19:39.519Z,3.89
2023-03-17T07:22:07.094Z,4.00
2023-03-17T07:24:33.873Z,4.09
2023-03-17T07:27:00.561Z,4.12
2023-03-17T07:29:28.518Z,4.17
2023-03-17T07:31:55.195Z,4.21
2023-03-17T07:34:22.245Z,4.23
2023-03-17T07:36:48.873Z,4.31
2023-03-17T07:39:15.637Z,4.43
2023-03-17T07:41:43.992Z,4.51
2023-03-17T07:44:11.474Z,4.60
2023-03-17T07:46:39.013Z,4.66
2023-03-17T07:49:06.325Z,4.74
2023-03-17T07:51:33.167Z,4.83
2023-03-17T07:54:04.009Z,4.99
2023-03-17T07:56:31.636Z,5.04
2023-03-17T07:58:59.234Z,5.28
2023-03-17T08:01:26.542Z,5.46
2023-03-17T08:03:53.291Z,5.46
2023-03-17T08:06:20.363Z,5.59
2023-03-17T08:08:47.135Z,5.58
2023-03-17T08:11:14.309Z,5.66
2023-03-17T08:13:40.988Z,5.73
2023-03-17T08:16:08.124Z,5.75
2023-03-17T08:18:35.051Z,5.75
2023-03-17T08:21:02.125Z,5.84
2023-03-17T08:23:28.975Z,5.91
2023-03-17T08:26:03.333Z,5.99
2023-03-17T08:28:30.510Z,6.02
2023-03-17T08:31:12.846Z,6.07
2023-03-17T08:33:40.873Z,6.24
2023-03-17T08:36:09.484Z,6.24
2023-03-17T08:38:37.605Z,6.35
2023-03-17T08:41:06.775Z,6.28
2023-03-17T08:43:34.250Z,6.41
2023-03-17T08:46:07.253Z,6.53
2023-03-17T08:48:35.423Z,6.64
2023-03-17T08:51:02.142Z,6.77
2023-03-17T08:53:29.859Z,6.78
2023-03-17T08:55:57.350Z,6.93
2023-03-17T08:58:24.574Z,7.07
2023-03-17T09:00:52.445Z,7.19
2023-03-17T09:03:19.174Z,7.25
2023-03-17T09:05:45.785Z,7.36
2023-03-17T09:08:13.033Z,7.43
2023-03-17T09:10:44.092Z,7.39
2023-03-17T09:13:11.679Z,7.53
2023-03-17T09:15:38.892Z,7.60
2023-03-17T09:18:06.770Z,7.78
2023-03-17T09:20:34.031Z,7.88
2023-03-17T09:23:01.178Z,8.06
2023-03-17T09:25:27.796Z,8.09
2023-03-17T09:27:55.651Z,8.30
2023-03-17T09:30:22.319Z,8.35
2023-03-17T09:32:49.240Z,8.54
2023-03-17T09:35:16.011Z,8.75
2023-03-17T09:37:42.735Z,8.97
2023-03-17T09:40:13.605Z,9.15
2023-03-17T09:43:08.084Z,9.26
2023-03-17T09:45:42.959Z,9.47
2023-03-17T09:48:24.663Z,9.61
2023-03-17T09:50:56.528Z,9.85
2023-03-17T09:53:34.195Z,9.91
2023-03-17T09:56:06.106Z,10.03
2023-03-17T09:58:33.664Z,9.91
2023-03-17T10:01:01.638Z,10.03
2023-03-17T10:03:28.275Z,10.20
2023-03-17T10:06:13.201Z,10.36
2023-03-17T10:08:48.690Z,10.57
2023-03-17T10:11:31.437Z,10.62
2023-03-17T10:14:03.264Z,10.74
2023-03-17T10:16:53.926Z,10.68
2023-03-17T10:19:28.579Z,10.62
2023-03-17T10:22:05.456Z,10.53
2023-03-17T10:24:33.014Z,10.52
2023-03-17T10:27:03.782Z,10.62
2023-03-17T10:29:32.041Z,10.63
2023-03-17T10:31:58.999Z,10.77
2023-03-17T10:34:32.331Z,10.79
2023-03-17T10:37:09.598Z,10.91
2023-03-17T10:39:47.018Z,10.99
2023-03-17T10:42:27.152Z,10.91
2023-03-17T10:44:55.100Z,10.95
2023-03-17T10:47:38.113Z,11.02
2023-03-17T10:50:32.132Z,11.10
2023-03-17T10:53:03.452Z,11.35
2023-03-17T10:55:38.537Z,11.51
2023-03-17T10:58:15.836Z,11.65
2023-03-17T11:01:13.383Z,11.82
2023-03-17T11:03:40.383Z,12.04
2023-03-17T11:06:12.212Z,12.08
2023-03-17T11:08:42.023Z,12.19
2023-03-17T11:11:26.319Z,12.17
2023-03-17T11:14:19.565Z,12.27
2023-03-17T11:16:55.243Z,12.25
2023-03-17T11:19:31.048Z,12.40
2023-03-17T11:22:04.929Z,12.62
2023-03-17T11:24:36.395Z,12.65
2023-03-17T11:27:12.250Z,12.65
2023-03-17T11:30:14.865Z,12.78
2023-03-17T11:32:50.099Z,12.63
2023-03-17T11:35:38.363Z,12.82
2023-03-17T11:38:18.974Z,13.05
2023-03-17T11:41:04.861Z,13.11
2023-03-17T11:44:06.330Z,13.26
2023-03-17T11:46:37.245Z,13.46
2023-03-17T11:49:09.926Z,13.58
2023-03-17T11:52:03.541Z,13.52
2023-03-17T11:54:58.971Z,13.31
2023-03-17T11:57:32.873Z,13.43
2023-03-17T12:00:04.577Z,13.60
2023-03-17T12:02:43.787Z,13.49
2023-03-17T12:05:17.160Z,13.74
2023-03-17T12:07:48.096Z,13.30
2023-03-17T12:10:28.791Z,13.73
2023-03-17T12:12:59.636Z,13.92
2023-03-17T12:15:41.934Z,14.00
2023-03-17T12:18:18.662Z,14.13
2023-03-17T12:20:54.314Z,14.17
2023-03-17T12:23:42.396Z,14.26
2023-03-17T12:26:12.811Z,14.05
2023-03-17T12:28:48.720Z,14.08
2023-03-17T12:31:26.057Z,13.78
2023-03-17T12:34:16.933Z,13.98
2023-03-17T12:36:44.015Z,13.99
2023-03-17T12:39:16.358Z,14.09
2023-03-17T12:42:18.664Z,14.11
2023-03-17T12:44:59.840Z,14.11
2023-03-17T12:47:50.441Z,14.15
2023-03-17T12:50:25.976Z,14.10
2023-03-17T12:53:04.392Z,13.97
2023-03-17T12:55:33.129Z,13.72
2023-03-17T12:58:05.841Z,13.70
2023-03-17T13:00:50.633Z,13.77
2023-03-17T13:03:23.624Z,13.80
2023-03-17T13:05:52.878Z,13.77
2023-03-17T13:08:25.591Z,13.90
2023-03-17T13:11:18.988Z,13.90
2023-03-17T13:13:54.821Z,13.89
2023-03-17T13:16:41.331Z,13.97
2023-03-17T13:19:18.727Z,13.98
2023-03-17T13:22:13.237Z,14.00
2023-03-17T13:24:53.091Z,13.80
2023-03-17T13:27:42.341Z,13.81
2023-03-17T13:30:26.250Z,13.87
2023-03-17T13:32:57.153Z,13.86
2023-03-17T13:35:46.866Z,13.91
2023-03-17T13:38:27.140Z,13.70
2023-03-17T13:41:21.660Z,13.69
2023-03-17T13:43:57.544Z,13.38
2023-03-17T13:46:36.595Z,13.38
2023-03-17T13:49:15.253Z,13.44
2023-03-17T13:51:52.739Z,13.41
2023-03-17T13:54:28.748Z,13.30
2023-03-17T13:56:56.851Z,13.36
2023-03-17T13:59:55.484Z,13.32
2023-03-17T14:02:23.908Z,13.34
2023-03-17T14:04:56.402Z,13.40
2023-03-17T14:07:25.878Z,13.43
2023-03-17T14:09:59.105Z,13.46
2023-03-17T14:12:32.595Z,13.52
2023-03-17T14:15:16.647Z,13.62
2023-03-17T14:17:49.970Z,13.59
2023-03-17T14:20:16.894Z,13.60
2023-03-17T14:22:46.122Z,13.60
2023-03-17T14:25:18.557Z,13.57
2023-03-17T14:27:49.639Z,13.46
2023-03-17T14:30:19.774Z,13.45
2023-03-17T14:32:59.953Z,13.41
2023-03-17T14:35:37.613Z,13.37
2023-03-17T14:38:16.320Z,13.44
2023-03-17T14:40:42.933Z,13.34
2023-03-17T14:43:10.578Z,13.33
2023-03-17T14:45:48.357Z,13.27
2023-03-17T14:48:17.657Z,13.18
2023-03-17T14:50:53.450Z,13.23
2023-03-17T14:53:22.381Z,13.13
2023-03-17T14:55:48.986Z,13.13
2023-03-17T14:58:24.373Z,13.08
2023-03-17T15:01:03.108Z,12.98
2023-03-17T15:03:32.994Z,12.93
2023-03-17T15:06:23.178Z,12.94
2023-03-17T15:08:50.884Z,12.83
2023-03-17T15:11:23.946Z,12.88
2023-03-17T15:13:54.286Z,12.86
2023-03-17T16:11:20.600Z,11.86
2023-03-17T16:13:47.656Z,11.95
2023-03-17T16:16:26.395Z,11.79
2023-03-17T16:18:53.585Z,11.76
2023-03-17T16:21:20.661Z,11.80
2023-03-17T16:23:48.568Z,11.64
2023-03-17T16:26:17.015Z,11.59
2023-03-17T16:28:46.176Z,11.61
2023-03-17T16:31:25.954Z,11.52
2023-03-17T16:33:55.579Z,11.45
2023-03-17T16:36:23.763Z,11.44
2023-03-17T16:38:51.269Z,11.42
2023-03-17T16:41:21.992Z,11.31
2023-03-17T16:43:53.581Z,11.38
2023-03-17T16:46:21.375Z,11.26
2023-03-17T16:48:49.482Z,11.29
2023-03-17T16:51:16.377Z,11.32
2023-03-17T16:53:43.302Z,11.08
2023-03-17T16:56:16.572Z,11.19
2023-03-17T16:58:43.622Z,11.14
2023-03-17T17:01:22.515Z,11.12
2023-03-17T17:03:49.606Z,10.94
2023-03-17T17:06:16.688Z,11.10
2023-03-17T17:08:44.741Z,10.98
2023-03-17T17:11:14.815Z,11.06
2023-03-17T17:13:42.273Z,11.06
2023-03-17T17:16:19.513Z,10.95
2023-03-17T17:18:47.399Z,10.86
2023-03-17T17:21:15.352Z,10.88
2023-03-17T17:23:41.973Z,10.83
2023-03-17T17:26:08.648Z,10.80
2023-03-17T17:28:35.284Z,10.86
2023-03-17T17:31:02.083Z,10.74
2023-03-17T17:33:28.798Z,10.68
2023-03-17T17:35:55.759Z,10.65
2023-03-17T17:38:28.453Z,10.57
2023-03-17T17:40:57.364Z,10.47
2023-03-17T17:43:27.392Z,10.44
2023-03-17T17:45:54.709Z,10.46
2023-03-17T17:48:23.578Z,10.46
2023-03-17T17:50:51.801Z,10.34
2023-03-17T17:53:18.733Z,10.27
2023-03-17T17:55:47.107Z,10.28
2023-03-17T17:58:22.866Z,10.33
2023-03-17T18:00:49.958Z,10.39
2023-03-17T18:03:17.030Z,10.31
2023-03-17T18:05:44.337Z,10.26
2023-03-17T18:08:13.704Z,10.28
2023-03-17T18:10:40.381Z,10.34
2023-03-17T18:13:07.045Z,10.19
2023-03-17T18:15:33.945Z,10.06
2023-03-17T18:18:00.633Z,9.94
2023-03-17T18:20:27.654Z,9.97
2023-03-17T18:22:54.461Z,10.03
2023-03-17T18:25:21.283Z,10.02
2023-03-17T18:27:47.919Z,10.02
2023-03-17T18:30:23.301Z,9.95
2023-03-17T18:32:51.103Z,9.98
2023-03-17T18:35:19.961Z,10.01
2023-03-17T18:37:46.829Z,9.94
2023-03-17T18:40:17.215Z,9.80
2023-03-17T18:42:45.704Z,9.92
2023-03-17T18:45:12.890Z,9.93
2023-03-17T18:47:41.758Z,9.85
2023-03-17T18:50:11.423Z,9.70
2023-03-17T18:52:40.997Z,9.68
2023-03-17T18:55:09.435Z,9.75
2023-03-17T18:57:36.741Z,9.81
2023-03-17T19:00:05.201Z,9.81
2023-03-17T19:02:31.931Z,9.91
2023-03-17T19:04:58.540Z,9.92
2023-03-17T19:07:25.326Z,9.83
2023-03-17T19:09:51.947Z,9.78
2023-03-17T19:12:18.796Z,9.74
2023-03-17T19:14:45.584Z,9.79
2023-03-17T19:17:12.237Z,9.83
2023-03-17T19:19:40.579Z,9.71
2023-03-17T19:22:07.735Z,9.80
2023-03-17T19:24:35.692Z,9.72
2023-03-17T19:27:02.310Z,9.69
2023-03-17T19:29:28.920Z,9.84
2023-03-17T19:31:55.668Z,9.73
2023-03-17T19:34:23.276Z,9.71
2023-03-17T19:36:54.092Z,9.69
2023-03-17T19:39:21.662Z,9.71
2023-03-17T19:41:53.348Z,9.63
2023-03-17T19:44:19.960Z,9.66
2023-03-17T19:46:46.675Z,9.60
2023-03-17T19:49:15.227Z,9.58
2023-03-17T19:51:42.573Z,9.50
2023-03-17T19:54:11.236Z,9.58
2023-03-17T19:56:38.756Z,9.58
2023-03-17T19:59:09.062Z,9.57
2023-03-17T20:01:38.074Z,9.45
2023-03-17T20:04:06.912Z,9.40
2023-03-17T20:06:34.649Z,9.40
2023-03-17T20:09:04.107Z,9.42
2023-03-17T20:11:33.912Z,9.39
2023-03-17T20:14:01.347Z,9.43
2023-03-17T20:16:28.001Z,9.26
2023-03-17T20:18:54.628Z,9.22
2023-03-17T20:21:21.294Z,9.37
2023-03-17T20:23:47.995Z,9.38
2023-03-17T20:26:14.660Z,9.24
2023-03-17T20:28:41.613Z,9.19
2023-03-17T20:31:09.198Z,9.20
2023-03-17T20:33:36.096Z,9.21
2023-03-17T20:36:05.981Z,9.20
2023-03-17T20:38:36.798Z,9.10
2023-03-17T20:41:12.712Z,9.15
2023-03-17T20:43:40.396Z,9.25
2023-03-17T20:46:09.200Z,9.07
2023-03-17T20:48:37.130Z,8.99
2023-03-17T20:51:06.291Z,9.10
2023-03-17T20:53:34.477Z,9.06
2023-03-17T20:56:01.132Z,8.98
2023-03-17T20:58:27.973Z,8.91
2023-03-17T21:00:55.023Z,8.96
2023-03-17T21:03:21.824Z,8.92
2023-03-17T21:05:48.519Z,8.83
2023-03-17T21:08:15.572Z,8.85
2023-03-17T21:10:42.163Z,8.69
2023-03-17T21:13:08.947Z,8.81
2023-03-17T21:15:36.127Z,8.80
2023-03-17T21:18:02.845Z,8.76
2023-03-17T21:20:29.867Z,8.72
2023-03-17T21:22:56.794Z,8.67
2023-03-17T21:25:23.532Z,8.61
2023-03-17T21:27:50.862Z,8.64
2023-03-17T21:30:17.529Z,8.65
2023-03-17T21:32:44.179Z,8.67
2023-03-17T21:35:10.810Z,8.60
2023-03-17T21:37:37.553Z,8.55
2023-03-17T21:40:08.218Z,8.64
2023-03-17T21:42:34.909Z,8.62
2023-03-17T21:45:01.567Z,8.63
2023-03-17T21:47:30.021Z,8.55
2023-03-17T21:49:57.917Z,8.71
2023-03-17T21:52:26.083Z,8.59
2023-03-17T21:54:53.328Z,8.54
2023-03-17T21:57:20.082Z,8.48
2023-03-17T21:59:49.011Z,8.54
2023-03-17T22:02:18.695Z,8.59
2023-03-17T22:04:46.880Z,8.65
2023-03-17T22:07:13.937Z,8.64
2023-03-17T22:09:40.542Z,8.56
2023-03-17T22:12:07.892Z,8.69
2023-03-17T22:14:35.721Z,8.56
2023-03-17T22:17:03.195Z,8.52
2023-03-17T22:19:29.813Z,8.57
2023-03-17T22:21:56.612Z,8.61
2023-03-17T22:24:23.430Z,8.50
2023-03-17T22:26:50.043Z,8.54
2023-03-17T22:29:16.747Z,8.51
2023-03-17T22:31:43.419Z,8.50
2023-03-17T22:34:10.080Z,8.49
2023-03-17T22:36:37.474Z,8.55
2023-03-17T22:39:08.713Z,8.66
2023-03-17T22:41:35.358Z,8.53
2023-03-17T22:44:02.484Z,8.55
2023-03-17T22:46:29.156Z,8.60
2023-03-17T22:48:58.213Z,8.58
2023-03-17T22:51:26.557Z,8.59
2023-03-17T22:53:53.386Z,8.56
2023-03-17T22:56:20.278Z,8.58
2023-03-17T22:58:47.363Z,8.58
2023-03-17T23:01:16.464Z,8.48
2023-03-17T23:03:44.346Z,8.43
2023-03-17T23:06:11.476Z,8.48
2023-03-17T23:08:39.177Z,8.55
2023-03-17T23:11:22.191Z,8.45
2023-03-17T23:13:49.344Z,8.51
2023-03-17T23:16:20.245Z,8.43
2023-03-17T23:18:47.237Z,8.40
2023-03-17T23:21:27.696Z,8.40
2023-03-17T23:23:54.727Z,8.42
2023-03-17T23:26:21.613Z,8.32
2023-03-17T23:28:49.631Z,8.28
2023-03-17T23:31:16.861Z,8.29
2023-03-17T23:33:43.884Z,8.33
2023-03-17T23:36:11.223Z,8.37
2023-03-17T23:38:39.987Z,8.21
2023-03-17T23:41:07.725Z,8.29
2023-03-17T23:43:34.737Z,8.41
2023-03-17T23:46:01.718Z,8.15
2023-03-17T23:48:28.907Z,8.13
2023-03-17T23:50:55.752Z,8.22
2023-03-17T23:53:24.156Z,8.22
2023-03-17T23:55:54.443Z,8.19
2023-03-17T23:58:21.923Z,8.21
